createdAt,value
2018-06-19T00:01:54.124Z,16.00
2018-06-19T00:04:23.239Z,15.90
2018-06-19T00:06:52.425Z,15.90
2018-06-19T00:09:21.822Z,15.80
2018-06-19T00:11:51.011Z,15.80
2018-06-19T00:14:20.091Z,15.70
2018-06-19T00:19:17.992Z,15.60
2018-06-19T00:26:45.679Z,15.60
2018-06-19T00:29:15.031Z,15.60
2018-06-19T00:31:44.243Z,15.50
2018-06-19T00:34:13.575Z,15.50
2018-06-19T00:36:42.771Z,15.50
2018-06-19T00:39:12.837Z,15.40
2018-06-19T00:41:42.252Z,15.40
2018-06-19T00:44:11.944Z,15.30
2018-06-19T00:46:43.414Z,15.40
2018-06-19T00:49:12.579Z,15.40
2018-06-19T00:51:41.892Z,15.30
2018-06-19T00:54:11.080Z,15.30
2018-06-19T00:56:50.235Z,15.30
2018-06-19T00:59:19.550Z,15.40
2018-06-19T01:01:48.502Z,15.30
2018-06-19T01:04:17.411Z,15.10
2018-06-19T01:06:46.571Z,15.10
2018-06-19T01:09:15.450Z,15.10
2018-06-19T01:11:44.481Z,15.00
2018-06-19T01:14:13.378Z,14.90
2018-06-19T01:16:42.336Z,14.90
2018-06-19T01:19:11.261Z,14.80
2018-06-19T01:21:40.179Z,14.80
2018-06-19T01:24:09.062Z,14.70
2018-06-19T01:26:37.961Z,14.80
2018-06-19T01:29:06.925Z,14.70
2018-06-19T01:31:35.806Z,14.50
2018-06-19T01:34:04.695Z,14.50
2018-06-19T01:36:33.586Z,14.50
2018-06-19T01:39:02.507Z,14.40
2018-06-19T01:41:31.395Z,14.50
2018-06-19T01:44:00.286Z,14.50
2018-06-19T01:46:29.166Z,14.50
2018-06-19T01:48:58.054Z,14.40
2018-06-19T01:51:26.947Z,14.60
2018-06-19T01:53:55.806Z,14.60
2018-06-19T01:56:24.699Z,14.60
2018-06-19T01:58:53.582Z,14.60
2018-06-19T02:01:22.497Z,14.50
2018-06-19T02:06:19.867Z,14.60
2018-06-19T02:08:48.740Z,14.60
2018-06-19T02:11:17.622Z,14.60
2018-06-19T02:13:46.510Z,14.50
2018-06-19T02:16:15.475Z,14.50
2018-06-19T02:18:44.332Z,14.40
2018-06-19T02:21:13.263Z,14.50
2018-06-19T02:23:42.201Z,14.50
2018-06-19T02:26:11.115Z,14.60
2018-06-19T02:28:40.099Z,14.60
2018-06-19T02:31:09.217Z,14.60
2018-06-19T02:33:38.120Z,14.70
2018-06-19T02:36:07.063Z,14.80
2018-06-19T02:38:36.027Z,14.80
2018-06-19T02:41:04.970Z,14.80
2018-06-19T02:43:33.850Z,14.90
2018-06-19T02:46:02.739Z,15.00
2018-06-19T02:48:31.615Z,15.10
2018-06-19T02:51:00.503Z,15.10
2018-06-19T02:53:29.547Z,15.20
2018-06-19T02:55:58.445Z,15.30
2018-06-19T02:58:27.317Z,15.30
2018-06-19T03:00:56.201Z,15.40
2018-06-19T03:03:25.064Z,15.40
2018-06-19T03:05:54.158Z,15.40
2018-06-19T03:08:23.041Z,15.40
2018-06-19T03:10:51.938Z,15.40
2018-06-19T03:13:20.880Z,15.40
2018-06-19T03:15:49.766Z,15.40
2018-06-19T03:18:18.642Z,15.30
2018-06-19T03:20:47.526Z,15.30
2018-06-19T03:23:16.389Z,15.30
2018-06-19T03:25:45.298Z,15.30
2018-06-19T03:28:14.189Z,15.30
2018-06-19T03:30:43.074Z,15.30
2018-06-19T03:33:12.071Z,15.40
2018-06-19T03:35:40.971Z,15.40
2018-06-19T03:38:09.841Z,15.40
2018-06-19T03:40:38.846Z,15.40
2018-06-19T03:43:07.726Z,15.40
2018-06-19T03:45:36.628Z,15.40
2018-06-19T03:48:05.530Z,15.40
2018-06-19T03:50:34.730Z,15.40
2018-06-19T03:53:04.727Z,15.50
2018-06-19T03:55:33.610Z,15.50
2018-06-19T03:58:02.484Z,15.60
2018-06-19T04:00:31.444Z,15.60
2018-06-19T04:03:00.330Z,15.70
2018-06-19T04:05:29.315Z,15.70
2018-06-19T04:07:58.211Z,15.80
2018-06-19T04:10:27.112Z,15.80
2018-06-19T04:12:55.988Z,15.70
2018-06-19T04:15:24.870Z,15.70
2018-06-19T04:17:53.754Z,15.80
2018-06-19T04:20:22.639Z,15.80
2018-06-19T04:25:20.282Z,16.00
2018-06-19T04:27:49.181Z,15.90
2018-06-19T04:30:18.055Z,16.00
2018-06-19T04:32:59.515Z,16.00
2018-06-19T04:35:28.505Z,16.10
2018-06-19T04:37:57.615Z,16.00
2018-06-19T04:40:26.495Z,16.20
2018-06-19T04:42:55.374Z,16.30
2018-06-19T04:45:24.347Z,16.30
2018-06-19T04:47:53.262Z,16.40
2018-06-19T04:50:22.131Z,16.40
2018-06-19T04:52:51.395Z,16.50
2018-06-19T04:55:20.320Z,16.60
2018-06-19T04:57:49.194Z,16.60
2018-06-19T05:00:18.071Z,16.70
2018-06-19T05:02:49.583Z,16.80
2018-06-19T05:05:18.459Z,16.80
2018-06-19T05:07:47.388Z,16.90
2018-06-19T05:10:16.350Z,17.00
2018-06-19T05:12:45.297Z,17.10
2018-06-19T05:15:14.123Z,17.50
2018-06-19T05:17:43.951Z,18.20
2018-06-19T05:20:12.877Z,18.50
2018-06-19T05:25:10.466Z,18.80
2018-06-19T05:27:39.442Z,18.90
2018-06-19T05:32:36.882Z,19.10
2018-06-19T05:35:05.833Z,18.80
2018-06-19T05:37:34.702Z,18.40
2018-06-19T05:40:04.013Z,18.20
2018-06-19T05:42:32.910Z,18.10
2018-06-19T05:45:01.954Z,18.00
2018-06-19T05:47:31.309Z,17.90
2018-06-19T05:50:00.499Z,18.00
2018-06-19T05:52:29.427Z,18.10
2018-06-19T05:54:58.299Z,18.20
2018-06-19T05:57:27.260Z,18.20
2018-06-19T05:59:56.319Z,18.30
2018-06-19T06:02:25.237Z,18.50
2018-06-19T06:04:54.246Z,18.50
2018-06-19T06:07:23.150Z,18.70
2018-06-19T06:09:52.042Z,18.70
2018-06-19T06:12:20.933Z,18.90
2018-06-19T06:14:49.846Z,19.30
2018-06-19T06:17:18.846Z,19.70
2018-06-19T06:19:47.742Z,20.00
2018-06-19T06:22:16.639Z,20.30
2018-06-19T06:24:45.543Z,20.30
2018-06-19T06:27:14.453Z,20.40
2018-06-19T06:32:11.970Z,20.20
2018-06-19T06:34:40.992Z,20.10
2018-06-19T06:37:10.142Z,20.20
2018-06-19T06:39:39.070Z,20.30
2018-06-19T06:42:07.973Z,20.30
2018-06-19T06:44:36.967Z,20.30
2018-06-19T06:47:05.898Z,20.20
2018-06-19T06:49:34.782Z,20.30
2018-06-19T06:52:03.726Z,20.50
2018-06-19T06:54:32.722Z,20.60
2018-06-19T06:57:02.098Z,20.40
2018-06-19T06:59:31.707Z,20.40
2018-06-19T07:02:00.621Z,20.40
2018-06-19T07:04:29.504Z,20.40
2018-06-19T07:06:58.401Z,20.40
2018-06-19T07:09:27.305Z,20.50
2018-06-19T07:11:56.194Z,20.60
2018-06-19T07:14:25.429Z,20.80
2018-06-19T07:16:54.423Z,20.90
2018-06-19T07:19:23.339Z,21.00
2018-06-19T07:24:20.829Z,21.20
2018-06-19T07:26:49.735Z,21.20
2018-06-19T07:29:18.711Z,21.10
2018-06-19T07:31:47.789Z,21.00
2018-06-19T07:34:16.688Z,21.00
2018-06-19T07:36:45.595Z,20.90
2018-06-19T07:39:14.506Z,20.90
2018-06-19T07:41:43.420Z,21.00
2018-06-19T07:44:12.378Z,21.20
2018-06-19T07:46:41.309Z,21.60
2018-06-19T07:49:10.304Z,21.90
2018-06-19T07:51:39.383Z,21.90
2018-06-19T07:54:08.366Z,21.60
2018-06-19T07:56:37.353Z,21.60
2018-06-19T07:59:06.268Z,21.60
2018-06-19T08:01:35.147Z,21.90
2018-06-19T08:04:04.047Z,22.20
2018-06-19T08:06:32.955Z,22.10
2018-06-19T08:09:01.871Z,21.90
2018-06-19T08:11:30.779Z,21.70
2018-06-19T08:13:59.693Z,21.60
2018-06-19T08:16:28.588Z,21.50
2018-06-19T08:18:57.491Z,21.60
2018-06-19T08:21:26.423Z,21.80
2018-06-19T08:23:55.306Z,22.00
2018-06-19T08:26:24.236Z,22.00
2018-06-19T08:28:53.130Z,21.80
2018-06-19T08:31:22.031Z,21.80
2018-06-19T08:33:50.963Z,21.70
2018-06-19T08:36:19.879Z,21.80
2018-06-19T08:38:48.767Z,21.90
2018-06-19T08:41:17.640Z,22.30
2018-06-19T08:43:46.546Z,22.30
2018-06-19T08:46:15.466Z,22.30
2018-06-19T08:48:44.404Z,22.30
2018-06-19T08:51:13.931Z,22.30
2018-06-19T08:53:42.910Z,22.30
2018-06-19T08:56:11.838Z,22.40
2018-06-19T08:58:40.784Z,22.50
2018-06-19T09:03:38.252Z,22.60
2018-06-19T09:06:07.270Z,22.50
2018-06-19T09:08:36.212Z,22.60
2018-06-19T09:11:05.228Z,22.40
2018-06-19T09:13:34.250Z,22.30
2018-06-19T09:16:03.262Z,22.40
2018-06-19T09:18:32.175Z,22.40
2018-06-19T09:21:01.103Z,22.50
2018-06-19T09:23:30.014Z,22.60
2018-06-19T09:25:58.926Z,22.60
2018-06-19T09:28:27.814Z,22.60
2018-06-19T09:30:56.693Z,22.60
2018-06-19T09:33:25.597Z,22.30
2018-06-19T09:35:55.027Z,22.10
2018-06-19T09:38:23.910Z,22.10
2018-06-19T09:40:52.854Z,22.00
2018-06-19T09:45:50.363Z,22.40
2018-06-19T09:48:19.462Z,22.70
2018-06-19T09:53:17.238Z,23.20
2018-06-19T09:55:46.246Z,23.30
2018-06-19T09:58:15.159Z,23.40
2018-06-19T10:00:44.162Z,23.40
2018-06-19T10:03:13.297Z,23.50
2018-06-19T10:05:42.223Z,23.50
2018-06-19T10:08:11.123Z,23.50
2018-06-19T10:10:40.100Z,23.40
2018-06-19T10:13:09.050Z,23.30
2018-06-19T10:15:37.995Z,23.40
2018-06-19T10:18:06.891Z,23.50
2018-06-19T10:20:35.778Z,23.70
2018-06-19T10:23:04.743Z,23.80
2018-06-19T10:25:33.700Z,23.90
2018-06-19T10:28:02.612Z,23.90
2018-06-19T10:30:31.552Z,23.90
2018-06-19T10:33:00.422Z,23.90
2018-06-19T10:35:29.465Z,23.90
2018-06-19T10:37:58.438Z,24.00
2018-06-19T10:40:27.362Z,23.90
2018-06-19T10:42:56.240Z,23.80
2018-06-19T10:45:25.130Z,23.90
2018-06-19T10:47:54.019Z,24.00
2018-06-19T10:50:22.918Z,24.10
2018-06-19T10:52:52.879Z,24.10
2018-06-19T10:55:21.787Z,24.30
2018-06-19T10:57:50.680Z,24.70
2018-06-19T11:00:19.687Z,24.70
2018-06-19T11:02:49.005Z,24.40
2018-06-19T11:05:17.911Z,24.30
2018-06-19T11:07:47.606Z,24.10
2018-06-19T11:10:17.394Z,24.10
2018-06-19T11:12:46.300Z,24.10
2018-06-19T11:15:15.225Z,24.30
2018-06-19T11:17:44.145Z,24.70
2018-06-19T11:20:13.076Z,24.80
2018-06-19T11:22:41.987Z,25.10
2018-06-19T11:25:11.126Z,25.30
2018-06-19T11:27:40.119Z,25.20
2018-06-19T11:30:09.142Z,25.20
2018-06-19T11:37:35.183Z,25.10
2018-06-19T11:40:04.099Z,25.10
2018-06-19T11:42:32.987Z,25.30
2018-06-19T11:45:01.899Z,25.40
2018-06-19T11:47:30.787Z,25.20
2018-06-19T11:49:59.706Z,25.20
2018-06-19T11:52:28.618Z,25.10
2018-06-19T11:54:57.544Z,25.00
2018-06-19T11:57:26.410Z,25.00
2018-06-19T11:59:55.354Z,25.00
2018-06-19T12:02:24.262Z,24.90
2018-06-19T12:07:21.684Z,25.40
2018-06-19T12:09:50.592Z,25.30
2018-06-19T12:12:19.478Z,25.30
2018-06-19T12:14:48.368Z,25.20
2018-06-19T12:17:17.383Z,25.00
2018-06-19T12:22:14.807Z,25.40
2018-06-19T12:24:43.810Z,25.50
2018-06-19T12:27:12.707Z,25.60
2018-06-19T12:29:41.677Z,25.60
2018-06-19T12:32:10.895Z,25.60
2018-06-19T12:34:39.831Z,25.40
2018-06-19T12:37:08.828Z,25.10
2018-06-19T12:39:37.711Z,24.90
2018-06-19T12:42:06.616Z,24.90
2018-06-19T12:44:35.557Z,25.10
2018-06-19T12:47:04.565Z,25.30
2018-06-19T12:49:44.902Z,25.70
2018-06-19T12:52:25.059Z,26.00
2018-06-19T12:55:20.278Z,26.20
2018-06-19T12:57:49.393Z,26.00
2018-06-19T13:00:18.306Z,25.90
2018-06-19T13:02:59.069Z,25.80
2018-06-19T13:05:39.551Z,25.70
2018-06-19T13:08:08.462Z,25.50
2018-06-19T13:10:37.328Z,25.60
2018-06-19T13:13:27.874Z,25.60
2018-06-19T13:15:57.174Z,25.60
2018-06-19T13:18:38.833Z,25.80
2018-06-19T13:21:07.757Z,26.00
2018-06-19T13:23:36.815Z,26.00
2018-06-19T13:26:05.672Z,25.90
2018-06-19T13:29:52.613Z,26.00
2018-06-19T13:32:21.756Z,26.60
2018-06-19T13:34:50.666Z,27.90
2018-06-19T13:37:19.615Z,27.90
2018-06-19T13:40:58.640Z,28.00
2018-06-19T13:43:39.035Z,27.60
2018-06-19T13:48:37.013Z,26.80
2018-06-19T13:51:05.958Z,27.10
2018-06-19T13:53:34.856Z,27.30
2018-06-19T13:56:15.034Z,27.80
2018-06-19T13:58:43.922Z,28.50
2018-06-19T14:01:12.931Z,28.50
2018-06-19T14:03:41.839Z,28.10
2018-06-19T14:09:02.343Z,27.00
2018-06-19T14:11:42.662Z,26.80
2018-06-19T14:14:11.594Z,26.50
2018-06-19T14:16:40.607Z,26.40
2018-06-19T14:21:38.837Z,26.10
2018-06-19T14:24:07.768Z,26.50
2018-06-19T14:26:36.671Z,26.70
2018-06-19T14:29:06.823Z,27.40
2018-06-19T14:31:35.774Z,28.20
2018-06-19T14:34:11.259Z,29.20
2018-06-19T14:36:40.194Z,29.30
2018-06-19T14:39:09.621Z,29.70
2018-06-19T14:41:38.623Z,29.70
2018-06-19T14:46:36.130Z,28.60
2018-06-19T14:49:05.038Z,28.50
2018-06-19T14:51:33.939Z,28.30
2018-06-19T14:54:03.310Z,27.60
2018-06-19T14:56:32.198Z,27.40
2018-06-19T14:59:01.070Z,27.30
2018-06-19T15:01:29.958Z,27.20
2018-06-19T15:03:58.866Z,27.50
2018-06-19T15:06:27.806Z,28.00
2018-06-19T15:08:56.675Z,27.60
2018-06-19T15:11:25.545Z,27.30
2018-06-19T15:16:26.134Z,27.50
2018-06-19T15:18:55.029Z,27.50
2018-06-19T15:21:24.078Z,27.40
2018-06-19T15:23:53.062Z,27.20
2018-06-19T15:26:21.953Z,26.70
2018-06-19T15:28:50.872Z,27.10
2018-06-19T15:31:19.909Z,27.10
2018-06-19T15:33:48.766Z,26.90
2018-06-19T15:36:17.846Z,26.90
2018-06-19T15:38:46.763Z,27.10
2018-06-19T15:41:15.707Z,26.90
2018-06-19T15:43:44.610Z,26.70
2018-06-19T15:46:13.513Z,26.80
2018-06-19T15:48:42.473Z,26.70
2018-06-19T15:51:11.378Z,26.50
2018-06-19T15:53:40.349Z,26.50
2018-06-19T15:56:11.092Z,26.60
2018-06-19T15:58:40.015Z,26.60
2018-06-19T16:01:09.227Z,26.60
2018-06-19T16:03:38.271Z,27.30
2018-06-19T16:06:07.192Z,28.20
2018-06-19T16:11:04.572Z,28.90
2018-06-19T16:13:33.469Z,28.30
2018-06-19T16:16:02.374Z,27.90
2018-06-19T16:18:31.286Z,27.50
2018-06-19T16:21:00.259Z,27.30
2018-06-19T16:23:29.193Z,26.90
2018-06-19T16:25:58.124Z,26.70
2018-06-19T16:28:27.611Z,26.60
2018-06-19T16:30:56.664Z,26.60
2018-06-19T16:33:25.577Z,26.40
2018-06-19T16:35:54.471Z,26.40
2018-06-19T16:38:23.400Z,26.50
2018-06-19T16:40:52.323Z,26.10
2018-06-19T16:43:21.291Z,26.10
2018-06-19T16:45:50.432Z,26.00
2018-06-19T16:48:19.411Z,26.00
2018-06-19T16:50:48.330Z,25.90
2018-06-19T16:53:17.249Z,25.70
2018-06-19T16:55:46.427Z,25.60
2018-06-19T16:58:15.442Z,25.60
2018-06-19T17:00:45.300Z,25.60
2018-06-19T17:03:14.394Z,25.60
2018-06-19T17:05:45.057Z,25.50
2018-06-19T17:08:14.235Z,25.40
2018-06-19T17:10:44.002Z,25.30
2018-06-19T17:13:13.226Z,25.30
2018-06-19T17:15:42.466Z,25.20
2018-06-19T17:18:11.524Z,25.20
2018-06-19T17:20:41.149Z,25.20
2018-06-19T17:23:10.344Z,25.30
2018-06-19T17:25:39.534Z,25.30
2018-06-19T17:28:10.568Z,25.30
2018-06-19T17:30:39.912Z,25.30
2018-06-19T17:33:08.812Z,25.40
2018-06-19T17:35:37.726Z,25.40
2018-06-19T17:38:06.621Z,25.20
2018-06-19T17:40:35.548Z,25.10
2018-06-19T17:43:04.678Z,25.20
2018-06-19T17:45:33.559Z,25.00
2018-06-19T17:48:06.318Z,25.00
2018-06-19T17:50:35.366Z,24.90
2018-06-19T17:53:04.250Z,25.00
2018-06-19T17:55:33.704Z,24.90
2018-06-19T17:58:02.655Z,24.80
2018-06-19T18:00:31.480Z,24.70
2018-06-19T18:03:01.185Z,24.60
2018-06-19T18:05:30.070Z,24.50
2018-06-19T18:07:59.023Z,24.40
2018-06-19T18:10:27.958Z,24.40
2018-06-19T18:12:56.914Z,24.30
2018-06-19T18:15:25.938Z,24.20
2018-06-19T18:18:42.306Z,24.20
2018-06-19T18:21:11.623Z,24.20
2018-06-19T18:23:42.117Z,24.10
2018-06-19T18:26:10.990Z,24.10
2018-06-19T18:28:39.942Z,24.10
2018-06-19T18:31:08.829Z,24.00
2018-06-19T18:33:38.492Z,24.00
2018-06-19T18:36:07.774Z,24.00
2018-06-19T18:38:36.709Z,23.90
2018-06-19T18:41:05.716Z,23.90
2018-06-19T18:43:34.664Z,23.80
2018-06-19T18:46:04.058Z,23.80
2018-06-19T18:48:33.012Z,23.80
2018-06-19T18:51:01.959Z,23.70
2018-06-19T18:53:30.852Z,23.80
2018-06-19T18:55:59.778Z,23.70
2018-06-19T18:58:28.671Z,23.70
2018-06-19T19:00:57.670Z,23.70
2018-06-19T19:03:26.701Z,23.70
2018-06-19T19:05:55.622Z,23.60
2018-06-19T19:08:25.379Z,23.60
2018-06-19T19:10:55.431Z,23.50
2018-06-19T19:13:26.358Z,23.50
2018-06-19T19:16:00.658Z,23.50
2018-06-19T19:18:34.934Z,23.40
2018-06-19T19:21:03.851Z,23.30
2018-06-19T19:23:32.734Z,23.20
2018-06-19T19:26:01.636Z,23.20
2018-06-19T19:28:35.829Z,23.20
2018-06-19T19:31:04.643Z,23.20
2018-06-19T19:33:33.578Z,23.20
2018-06-19T19:36:02.453Z,23.20
2018-06-19T19:38:36.776Z,23.00
2018-06-19T19:41:05.675Z,23.00
2018-06-19T19:43:34.610Z,23.00
2018-06-19T19:46:03.518Z,23.00
2018-06-19T19:48:37.607Z,23.00
2018-06-19T19:51:06.488Z,23.00
2018-06-19T19:53:35.378Z,22.90
2018-06-19T19:58:43.534Z,22.90
2018-06-19T20:01:12.440Z,22.80
2018-06-19T20:03:41.415Z,22.80
2018-06-19T20:06:10.310Z,22.70
2018-06-19T20:08:39.235Z,22.70
2018-06-19T20:11:11.414Z,22.70
2018-06-19T20:13:42.240Z,22.60
2018-06-19T20:16:11.118Z,22.50
2018-06-19T20:18:40.023Z,22.50
2018-06-19T20:21:08.902Z,22.50
2018-06-19T20:23:37.946Z,22.50
2018-06-19T20:26:06.919Z,22.40
2018-06-19T20:28:35.803Z,22.40
2018-06-19T20:31:04.849Z,22.40
2018-06-19T20:33:33.814Z,22.40
2018-06-19T20:36:03.294Z,22.40
2018-06-19T20:38:32.246Z,22.30
2018-06-19T20:41:01.190Z,22.30
2018-06-19T20:43:30.097Z,22.20
2018-06-19T20:45:59.092Z,22.10
2018-06-19T20:48:27.970Z,22.10
2018-06-19T20:50:56.878Z,22.10
2018-06-19T20:53:25.855Z,22.10
2018-06-19T20:55:54.819Z,22.00
2018-06-19T20:58:23.759Z,21.90
2018-06-19T21:00:52.663Z,21.90
2018-06-19T21:03:21.575Z,21.80
2018-06-19T21:05:50.500Z,21.80
2018-06-19T21:08:19.449Z,21.70
2018-06-19T21:10:48.367Z,21.70
2018-06-19T21:13:17.261Z,21.60
2018-06-19T21:15:46.398Z,21.60
2018-06-19T21:18:15.523Z,21.50
2018-06-19T21:20:44.613Z,21.50
2018-06-19T21:23:13.633Z,21.30
2018-06-19T21:25:42.602Z,21.30
2018-06-19T21:28:12.513Z,21.30
2018-06-19T21:30:41.566Z,21.10
2018-06-19T21:33:10.526Z,21.00
2018-06-19T21:38:09.120Z,20.90
2018-06-19T21:40:38.186Z,20.90
2018-06-19T21:43:07.269Z,20.80
2018-06-19T21:45:36.249Z,20.80
2018-06-19T21:48:06.206Z,20.70
2018-06-19T21:50:35.138Z,20.60
2018-06-19T21:53:04.055Z,20.60
2018-06-19T21:55:32.966Z,20.40
2018-06-19T21:58:01.877Z,20.50
2018-06-19T22:02:59.469Z,20.50
2018-06-19T22:05:28.369Z,20.30
2018-06-19T22:07:57.294Z,20.20
2018-06-19T22:10:26.255Z,20.00
2018-06-19T22:12:55.128Z,20.10
2018-06-19T22:15:24.036Z,20.00
2018-06-19T22:17:52.926Z,19.90
2018-06-19T22:20:21.808Z,19.90
2018-06-19T22:22:50.867Z,19.90
2018-06-19T22:25:19.747Z,19.90
2018-06-19T22:27:48.980Z,19.90
2018-06-19T22:30:17.890Z,19.90
2018-06-19T22:32:46.862Z,19.70
2018-06-19T22:35:15.827Z,20.60
2018-06-19T22:37:44.742Z,19.60
2018-06-19T22:40:13.662Z,19.60
2018-06-19T22:42:42.594Z,19.50
2018-06-19T22:45:11.495Z,19.40
2018-06-19T22:47:40.388Z,19.30
2018-06-19T22:50:09.296Z,19.30
2018-06-19T22:52:38.184Z,19.20
2018-06-19T22:55:07.074Z,19.00
2018-06-19T22:57:35.965Z,19.00
2018-06-19T23:00:04.915Z,19.00
2018-06-19T23:02:33.784Z,19.00
2018-06-19T23:05:02.668Z,19.00
2018-06-19T23:07:31.560Z,19.00
2018-06-19T23:10:00.487Z,18.90
2018-06-19T23:12:29.406Z,18.70
2018-06-19T23:14:58.298Z,18.70
2018-06-19T23:17:27.166Z,18.80
2018-06-19T23:19:56.066Z,18.70
2018-06-19T23:22:24.934Z,18.60
2018-06-19T23:24:53.819Z,18.60
2018-06-19T23:27:22.740Z,18.60
2018-06-19T23:29:51.623Z,18.70
2018-06-19T23:32:20.490Z,18.60
2018-06-19T23:34:49.398Z,18.50
2018-06-19T23:37:18.268Z,18.50
2018-06-19T23:39:47.192Z,18.40
2018-06-19T23:42:16.118Z,18.40
2018-06-19T23:44:45.074Z,18.30
2018-06-19T23:47:14.008Z,18.30
2018-06-19T23:49:42.936Z,18.30
2018-06-19T23:52:11.915Z,18.40
2018-06-19T23:54:40.818Z,18.40
2018-06-19T23:57:09.738Z,18.30
2018-06-19T23:59:38.640Z,18.30
